sensor_id;sensor_type;location;lat;lon;timestamp;temperature;humidity
71128;SHT30;59249;59.736;30.568;2022-10-16T00:01:49;10.99;82.62
71128;SHT30;59249;59.736;30.568;2022-10-16T00:04:17;11.01;82.53
71128;SHT30;59249;59.736;30.568;2022-10-16T00:06:46;10.99;82.56
71128;SHT30;59249;59.736;30.568;2022-10-16T00:09:15;10.94;82.52
71128;SHT30;59249;59.736;30.568;2022-10-16T00:11:44;10.99;82.54
71128;SHT30;59249;59.736;30.568;2022-10-16T00:14:15;10.89;82.62
71128;SHT30;59249;59.736;30.568;2022-10-16T00:16:43;10.85;82.62
71128;SHT30;59249;59.736;30.568;2022-10-16T00:19:13;10.86;82.90
71128;SHT30;59249;59.736;30.568;2022-10-16T00:21:43;10.84;83.04
71128;SHT30;59249;59.736;30.568;2022-10-16T00:24:30;10.84;83.06
71128;SHT30;59249;59.736;30.568;2022-10-16T00:26:59;10.77;83.04
71128;SHT30;59249;59.736;30.568;2022-10-16T00:29:29;10.83;83.06
71128;SHT30;59249;59.736;30.568;2022-10-16T00:32:14;10.80;83.03
71128;SHT30;59249;59.736;30.568;2022-10-16T00:34:44;10.79;83.12
71128;SHT30;59249;59.736;30.568;2022-10-16T00:37:14;10.73;83.13
71128;SHT30;59249;59.736;30.568;2022-10-16T00:39:42;10.72;83.13
71128;SHT30;59249;59.736;30.568;2022-10-16T00:42:15;10.73;83.12
71128;SHT30;59249;59.736;30.568;2022-10-16T00:44:48;10.63;83.20
71128;SHT30;59249;59.736;30.568;2022-10-16T00:47:25;10.63;83.07
71128;SHT30;59249;59.736;30.568;2022-10-16T00:50:02;10.59;83.21
71128;SHT30;59249;59.736;30.568;2022-10-16T00:52:35;10.56;83.30
71128;SHT30;59249;59.736;30.568;2022-10-16T00:55:06;10.54;83.41
71128;SHT30;59249;59.736;30.568;2022-10-16T00:57:38;10.46;83.48
71128;SHT30;59249;59.736;30.568;2022-10-16T01:00:15;10.44;83.44
71128;SHT30;59249;59.736;30.568;2022-10-16T01:02:44;10.42;83.58
71128;SHT30;59249;59.736;30.568;2022-10-16T01:05:14;10.37;83.69
71128;SHT30;59249;59.736;30.568;2022-10-16T01:07:53;10.34;83.62
71128;SHT30;59249;59.736;30.568;2022-10-16T01:10:30;10.29;83.68
71128;SHT30;59249;59.736;30.568;2022-10-16T01:13:07;10.30;83.77
71128;SHT30;59249;59.736;30.568;2022-10-16T01:15:43;10.22;83.70
71128;SHT30;59249;59.736;30.568;2022-10-16T01:18:22;10.20;83.85
71128;SHT30;59249;59.736;30.568;2022-10-16T01:21:02;10.11;83.98
71128;SHT30;59249;59.736;30.568;2022-10-16T01:23:43;10.14;84.24
71128;SHT30;59249;59.736;30.568;2022-10-16T01:26:35;10.16;84.21
71128;SHT30;59249;59.736;30.568;2022-10-16T01:29:13;10.20;84.15
71128;SHT30;59249;59.736;30.568;2022-10-16T01:31:49;10.24;84.08
71128;SHT30;59249;59.736;30.568;2022-10-16T01:34:27;10.26;84.20
71128;SHT30;59249;59.736;30.568;2022-10-16T01:37:06;10.30;83.95
71128;SHT30;59249;59.736;30.568;2022-10-16T01:39:39;10.32;83.98
71128;SHT30;59249;59.736;30.568;2022-10-16T01:42:15;10.37;83.87
71128;SHT30;59249;59.736;30.568;2022-10-16T01:44:48;10.43;83.86
71128;SHT30;59249;59.736;30.568;2022-10-16T01:47:22;10.40;83.92
71128;SHT30;59249;59.736;30.568;2022-10-16T01:49:54;10.45;83.85
71128;SHT30;59249;59.736;30.568;2022-10-16T01:52:28;10.49;83.85
71128;SHT30;59249;59.736;30.568;2022-10-16T01:55:00;10.52;83.73
71128;SHT30;59249;59.736;30.568;2022-10-16T01:57:38;10.53;83.70
71128;SHT30;59249;59.736;30.568;2022-10-16T02:00:14;10.48;83.86
71128;SHT30;59249;59.736;30.568;2022-10-16T02:02:48;10.49;83.94
71128;SHT30;59249;59.736;30.568;2022-10-16T02:05:25;10.53;83.81
71128;SHT30;59249;59.736;30.568;2022-10-16T02:07:55;10.55;83.76
71128;SHT30;59249;59.736;30.568;2022-10-16T02:10:29;10.54;83.70
71128;SHT30;59249;59.736;30.568;2022-10-16T02:13:05;10.54;83.76
71128;SHT30;59249;59.736;30.568;2022-10-16T02:15:56;10.55;83.64
71128;SHT30;59249;59.736;30.568;2022-10-16T02:18:26;10.55;83.81
71128;SHT30;59249;59.736;30.568;2022-10-16T02:21:00;10.57;83.72
71128;SHT30;59249;59.736;30.568;2022-10-16T02:23:45;10.61;83.76
71128;SHT30;59249;59.736;30.568;2022-10-16T02:26:27;10.59;83.85
71128;SHT30;59249;59.736;30.568;2022-10-16T02:29:02;10.59;83.73
71128;SHT30;59249;59.736;30.568;2022-10-16T02:31:40;10.60;83.67
71128;SHT30;59249;59.736;30.568;2022-10-16T02:34:12;10.59;83.76
71128;SHT30;59249;59.736;30.568;2022-10-16T02:36:44;10.61;83.56
71128;SHT30;59249;59.736;30.568;2022-10-16T02:39:15;10.58;83.60
71128;SHT30;59249;59.736;30.568;2022-10-16T02:41:46;10.58;83.67
71128;SHT30;59249;59.736;30.568;2022-10-16T02:44:15;10.61;83.60
71128;SHT30;59249;59.736;30.568;2022-10-16T02:46:46;10.55;83.64
71128;SHT30;59249;59.736;30.568;2022-10-16T02:49:14;10.58;83.66
71128;SHT30;59249;59.736;30.568;2022-10-16T02:51:43;10.57;83.66
71128;SHT30;59249;59.736;30.568;2022-10-16T02:54:12;10.53;83.64
71128;SHT30;59249;59.736;30.568;2022-10-16T02:56:40;10.55;83.74
71128;SHT30;59249;59.736;30.568;2022-10-16T02:59:09;10.50;83.72
71128;SHT30;59249;59.736;30.568;2022-10-16T03:01:38;10.48;83.70
71128;SHT30;59249;59.736;30.568;2022-10-16T03:04:08;10.49;83.80
71128;SHT30;59249;59.736;30.568;2022-10-16T03:06:37;10.45;83.91
71128;SHT30;59249;59.736;30.568;2022-10-16T03:09:06;10.48;83.84
71128;SHT30;59249;59.736;30.568;2022-10-16T03:11:35;10.42;83.83
71128;SHT30;59249;59.736;30.568;2022-10-16T03:14:04;10.37;83.82
71128;SHT30;59249;59.736;30.568;2022-10-16T03:16:32;10.40;83.96
71128;SHT30;59249;59.736;30.568;2022-10-16T03:19:01;10.38;83.71
71128;SHT30;59249;59.736;30.568;2022-10-16T03:21:31;10.35;83.72
71128;SHT30;59249;59.736;30.568;2022-10-16T03:24:00;10.33;83.96
71128;SHT30;59249;59.736;30.568;2022-10-16T03:26:29;10.29;83.93
71128;SHT30;59249;59.736;30.568;2022-10-16T03:28:58;10.36;83.70
71128;SHT30;59249;59.736;30.568;2022-10-16T03:31:27;10.27;83.86
71128;SHT30;59249;59.736;30.568;2022-10-16T03:33:56;10.27;83.86
71128;SHT30;59249;59.736;30.568;2022-10-16T03:36:25;10.27;83.78
71128;SHT30;59249;59.736;30.568;2022-10-16T03:38:56;10.29;83.91
71128;SHT30;59249;59.736;30.568;2022-10-16T03:41:27;10.25;83.98
71128;SHT30;59249;59.736;30.568;2022-10-16T03:43:56;10.21;83.99
71128;SHT30;59249;59.736;30.568;2022-10-16T03:46:25;10.20;83.95
71128;SHT30;59249;59.736;30.568;2022-10-16T03:48:54;10.19;83.86
71128;SHT30;59249;59.736;30.568;2022-10-16T03:51:23;10.15;83.88
71128;SHT30;59249;59.736;30.568;2022-10-16T03:53:52;10.06;83.98
71128;SHT30;59249;59.736;30.568;2022-10-16T03:56:22;10.05;83.82
71128;SHT30;59249;59.736;30.568;2022-10-16T03:58:51;9.97;84.11
71128;SHT30;59249;59.736;30.568;2022-10-16T04:01:19;9.85;84.18
71128;SHT30;59249;59.736;30.568;2022-10-16T04:03:48;9.79;84.13
71128;SHT30;59249;59.736;30.568;2022-10-16T04:06:17;9.72;84.38
71128;SHT30;59249;59.736;30.568;2022-10-16T04:08:46;9.63;84.67
71128;SHT30;59249;59.736;30.568;2022-10-16T04:11:15;9.59;84.63
71128;SHT30;59249;59.736;30.568;2022-10-16T04:13:45;9.46;85.13
71128;SHT30;59249;59.736;30.568;2022-10-16T04:16:13;9.48;85.09
71128;SHT30;59249;59.736;30.568;2022-10-16T04:18:42;9.47;85.22
71128;SHT30;59249;59.736;30.568;2022-10-16T04:21:11;9.40;85.17
71128;SHT30;59249;59.736;30.568;2022-10-16T04:23:55;9.38;85.32
71128;SHT30;59249;59.736;30.568;2022-10-16T04:26:25;9.31;85.47
71128;SHT30;59249;59.736;30.568;2022-10-16T04:28:58;9.27;85.69
71128;SHT30;59249;59.736;30.568;2022-10-16T04:31:28;9.23;85.58
71128;SHT30;59249;59.736;30.568;2022-10-16T04:33:58;9.22;85.58
71128;SHT30;59249;59.736;30.568;2022-10-16T04:36:26;9.23;85.70
71128;SHT30;59249;59.736;30.568;2022-10-16T04:38:55;9.21;85.75
71128;SHT30;59249;59.736;30.568;2022-10-16T04:41:24;9.13;85.91
71128;SHT30;59249;59.736;30.568;2022-10-16T04:43:53;9.15;85.86
71128;SHT30;59249;59.736;30.568;2022-10-16T04:46:23;9.10;85.96
71128;SHT30;59249;59.736;30.568;2022-10-16T04:48:52;9.08;86.18
71128;SHT30;59249;59.736;30.568;2022-10-16T04:51:21;9.08;85.95
71128;SHT30;59249;59.736;30.568;2022-10-16T04:53:50;9.11;85.74
71128;SHT30;59249;59.736;30.568;2022-10-16T04:56:18;9.03;85.93
71128;SHT30;59249;59.736;30.568;2022-10-16T04:58:48;9.05;85.99
71128;SHT30;59249;59.736;30.568;2022-10-16T05:01:18;9.09;85.82
71128;SHT30;59249;59.736;30.568;2022-10-16T05:03:50;9.05;86.10
71128;SHT30;59249;59.736;30.568;2022-10-16T05:06:19;9.07;86.08
71128;SHT30;59249;59.736;30.568;2022-10-16T05:08:48;9.10;85.87
71128;SHT30;59249;59.736;30.568;2022-10-16T05:11:17;9.11;85.87
71128;SHT30;59249;59.736;30.568;2022-10-16T05:13:45;9.12;85.93
71128;SHT30;59249;59.736;30.568;2022-10-16T05:16:19;9.15;85.77
71128;SHT30;59249;59.736;30.568;2022-10-16T05:18:51;9.19;85.82
71128;SHT30;59249;59.736;30.568;2022-10-16T05:21:36;9.22;85.68
71128;SHT30;59249;59.736;30.568;2022-10-16T05:24:05;9.22;85.75
71128;SHT30;59249;59.736;30.568;2022-10-16T05:26:33;9.28;85.76
71128;SHT30;59249;59.736;30.568;2022-10-16T05:29:02;9.36;85.58
71128;SHT30;59249;59.736;30.568;2022-10-16T05:31:31;9.47;85.19
71128;SHT30;59249;59.736;30.568;2022-10-16T05:34:02;9.55;85.23
71128;SHT30;59249;59.736;30.568;2022-10-16T05:36:31;9.63;84.77
71128;SHT30;59249;59.736;30.568;2022-10-16T05:38:59;9.74;84.71
71128;SHT30;59249;59.736;30.568;2022-10-16T05:41:28;9.82;84.31
71128;SHT30;59249;59.736;30.568;2022-10-16T05:43:57;9.87;84.15
71128;SHT30;59249;59.736;30.568;2022-10-16T05:46:26;10.01;84.02
71128;SHT30;59249;59.736;30.568;2022-10-16T05:48:54;10.10;83.95
71128;SHT30;59249;59.736;30.568;2022-10-16T05:51:24;10.20;83.58
71128;SHT30;59249;59.736;30.568;2022-10-16T05:53:53;10.24;83.58
71128;SHT30;59249;59.736;30.568;2022-10-16T05:56:22;10.20;83.41
71128;SHT30;59249;59.736;30.568;2022-10-16T05:58:51;10.23;83.48
71128;SHT30;59249;59.736;30.568;2022-10-16T06:01:20;10.17;83.21
71128;SHT30;59249;59.736;30.568;2022-10-16T06:03:55;10.21;83.25
71128;SHT30;59249;59.736;30.568;2022-10-16T06:06:28;10.22;83.20
71128;SHT30;59249;59.736;30.568;2022-10-16T06:08:59;10.24;83.21
71128;SHT30;59249;59.736;30.568;2022-10-16T06:11:32;10.24;83.23
71128;SHT30;59249;59.736;30.568;2022-10-16T06:14:03;10.30;83.14
71128;SHT30;59249;59.736;30.568;2022-10-16T06:16:37;10.29;83.13
71128;SHT30;59249;59.736;30.568;2022-10-16T06:19:06;10.31;83.02
71128;SHT30;59249;59.736;30.568;2022-10-16T06:21:37;10.36;82.96
71128;SHT30;59249;59.736;30.568;2022-10-16T06:24:06;10.38;82.83
71128;SHT30;59249;59.736;30.568;2022-10-16T06:26:35;10.38;82.78
71128;SHT30;59249;59.736;30.568;2022-10-16T06:29:04;10.48;82.73
71128;SHT30;59249;59.736;30.568;2022-10-16T06:31:33;10.56;82.69
71128;SHT30;59249;59.736;30.568;2022-10-16T06:34:02;10.52;82.66
71128;SHT30;59249;59.736;30.568;2022-10-16T06:36:33;10.57;82.56
71128;SHT30;59249;59.736;30.568;2022-10-16T06:39:03;10.64;82.34
71128;SHT30;59249;59.736;30.568;2022-10-16T06:41:33;10.68;82.25
71128;SHT30;59249;59.736;30.568;2022-10-16T06:44:14;10.63;82.31
71128;SHT30;59249;59.736;30.568;2022-10-16T06:46:43;10.64;82.09
71128;SHT30;59249;59.736;30.568;2022-10-16T06:49:12;10.68;82.05
71128;SHT30;59249;59.736;30.568;2022-10-16T06:51:43;10.64;81.97
71128;SHT30;59249;59.736;30.568;2022-10-16T06:54:15;10.72;81.98
71128;SHT30;59249;59.736;30.568;2022-10-16T06:56:45;10.81;81.88
71128;SHT30;59249;59.736;30.568;2022-10-16T06:59:13;10.77;81.93
71128;SHT30;59249;59.736;30.568;2022-10-16T07:01:42;10.87;81.54
71128;SHT30;59249;59.736;30.568;2022-10-16T07:04:11;11.08;81.32
71128;SHT30;59249;59.736;30.568;2022-10-16T07:06:40;11.03;81.26
71128;SHT30;59249;59.736;30.568;2022-10-16T07:09:10;11.20;81.19
71128;SHT30;59249;59.736;30.568;2022-10-16T07:11:41;11.25;81.04
71128;SHT30;59249;59.736;30.568;2022-10-16T07:14:16;11.38;80.84
71128;SHT30;59249;59.736;30.568;2022-10-16T07:16:46;11.38;80.70
71128;SHT30;59249;59.736;30.568;2022-10-16T07:19:15;11.43;80.62
71128;SHT30;59249;59.736;30.568;2022-10-16T07:21:45;11.47;80.65
71128;SHT30;59249;59.736;30.568;2022-10-16T07:24:15;11.55;80.35
71128;SHT30;59249;59.736;30.568;2022-10-16T07:26:46;11.47;80.18
71128;SHT30;59249;59.736;30.568;2022-10-16T07:29:20;11.37;80.32
71128;SHT30;59249;59.736;30.568;2022-10-16T07:31:49;11.47;80.17
71128;SHT30;59249;59.736;30.568;2022-10-16T07:34:21;11.34;80.23
71128;SHT30;59249;59.736;30.568;2022-10-16T07:36:50;11.46;80.05
71128;SHT30;59249;59.736;30.568;2022-10-16T07:39:20;11.50;80.07
71128;SHT30;59249;59.736;30.568;2022-10-16T07:41:50;11.44;79.90
71128;SHT30;59249;59.736;30.568;2022-10-16T07:44:19;11.45;79.94
71128;SHT30;59249;59.736;30.568;2022-10-16T07:46:47;11.53;79.96
71128;SHT30;59249;59.736;30.568;2022-10-16T07:49:16;11.56;80.07
71128;SHT30;59249;59.736;30.568;2022-10-16T07:51:45;11.60;79.82
71128;SHT30;59249;59.736;30.568;2022-10-16T07:54:14;11.64;79.81
71128;SHT30;59249;59.736;30.568;2022-10-16T07:56:43;11.66;79.87
71128;SHT30;59249;59.736;30.568;2022-10-16T07:59:13;11.69;79.88
71128;SHT30;59249;59.736;30.568;2022-10-16T08:01:42;11.66;79.84
71128;SHT30;59249;59.736;30.568;2022-10-16T08:04:11;11.66;79.55
71128;SHT30;59249;59.736;30.568;2022-10-16T08:06:41;11.65;79.52
71128;SHT30;59249;59.736;30.568;2022-10-16T08:09:10;11.62;79.56
71128;SHT30;59249;59.736;30.568;2022-10-16T08:11:39;11.71;79.69
71128;SHT30;59249;59.736;30.568;2022-10-16T08:14:08;11.82;79.43
71128;SHT30;59249;59.736;30.568;2022-10-16T08:16:39;11.88;79.17
71128;SHT30;59249;59.736;30.568;2022-10-16T08:19:08;11.90;79.16
71128;SHT30;59249;59.736;30.568;2022-10-16T08:21:37;11.94;78.93
71128;SHT30;59249;59.736;30.568;2022-10-16T08:24:06;11.97;78.93
71128;SHT30;59249;59.736;30.568;2022-10-16T08:26:36;12.02;78.82
71128;SHT30;59249;59.736;30.568;2022-10-16T08:29:04;12.16;78.73
71128;SHT30;59249;59.736;30.568;2022-10-16T08:31:33;12.17;78.65
71128;SHT30;59249;59.736;30.568;2022-10-16T08:34:03;12.20;78.25
71128;SHT30;59249;59.736;30.568;2022-10-16T08:36:32;12.24;78.19
71128;SHT30;59249;59.736;30.568;2022-10-16T08:39:01;12.24;78.36
71128;SHT30;59249;59.736;30.568;2022-10-16T08:42:08;12.20;77.98
71128;SHT30;59249;59.736;30.568;2022-10-16T08:45:02;12.29;78.12
71128;SHT30;59249;59.736;30.568;2022-10-16T08:47:46;12.22;77.98
71128;SHT30;59249;59.736;30.568;2022-10-16T08:50:23;12.25;77.90
71128;SHT30;59249;59.736;30.568;2022-10-16T08:52:55;12.16;78.15
71128;SHT30;59249;59.736;30.568;2022-10-16T08:55:33;12.11;78.08
71128;SHT30;59249;59.736;30.568;2022-10-16T08:58:12;12.10;78.18
71128;SHT30;59249;59.736;30.568;2022-10-16T09:00:45;12.08;78.14
71128;SHT30;59249;59.736;30.568;2022-10-16T09:03:26;12.04;78.35
71128;SHT30;59249;59.736;30.568;2022-10-16T09:06:27;12.13;78.22
71128;SHT30;59249;59.736;30.568;2022-10-16T09:12:13;12.11;78.14
71128;SHT30;59249;59.736;30.568;2022-10-16T09:15:00;12.11;78.31
71128;SHT30;59249;59.736;30.568;2022-10-16T09:17:41;12.16;78.24
71128;SHT30;59249;59.736;30.568;2022-10-16T09:20:28;12.22;78.13
71128;SHT30;59249;59.736;30.568;2022-10-16T09:23:19;12.20;78.03
71128;SHT30;59249;59.736;30.568;2022-10-16T09:25:50;12.23;78.03
71128;SHT30;59249;59.736;30.568;2022-10-16T09:28:19;12.25;77.98
71128;SHT30;59249;59.736;30.568;2022-10-16T09:30:48;12.27;77.99
71128;SHT30;59249;59.736;30.568;2022-10-16T09:33:22;12.32;77.65
71128;SHT30;59249;59.736;30.568;2022-10-16T09:35:53;12.44;77.58
71128;SHT30;59249;59.736;30.568;2022-10-16T09:38:27;12.61;77.53
71128;SHT30;59249;59.736;30.568;2022-10-16T09:40:58;12.67;77.22
71128;SHT30;59249;59.736;30.568;2022-10-16T09:43:36;12.71;77.05
71128;SHT30;59249;59.736;30.568;2022-10-16T09:46:21;12.85;77.07
71128;SHT30;59249;59.736;30.568;2022-10-16T09:48:54;12.82;76.63
71128;SHT30;59249;59.736;30.568;2022-10-16T09:51:27;12.92;76.62
71128;SHT30;59249;59.736;30.568;2022-10-16T09:54:00;12.87;76.89
71128;SHT30;59249;59.736;30.568;2022-10-16T09:56:31;12.95;76.66
71128;SHT30;59249;59.736;30.568;2022-10-16T09:59:08;12.99;76.49
71128;SHT30;59249;59.736;30.568;2022-10-16T10:01:39;12.92;76.57
71128;SHT30;59249;59.736;30.568;2022-10-16T10:04:10;13.01;76.74
71128;SHT30;59249;59.736;30.568;2022-10-16T10:06:44;12.97;76.63
71128;SHT30;59249;59.736;30.568;2022-10-16T10:09:21;13.09;76.81
71128;SHT30;59249;59.736;30.568;2022-10-16T10:11:54;13.02;76.60
71128;SHT30;59249;59.736;30.568;2022-10-16T10:14:31;12.95;76.89
71128;SHT30;59249;59.736;30.568;2022-10-16T10:17:17;12.91;76.89
71128;SHT30;59249;59.736;30.568;2022-10-16T10:19:53;12.85;76.91
71128;SHT30;59249;59.736;30.568;2022-10-16T10:22:27;12.88;77.15
71128;SHT30;59249;59.736;30.568;2022-10-16T10:25:14;12.85;77.05
71128;SHT30;59249;59.736;30.568;2022-10-16T10:28:00;12.81;77.33
71128;SHT30;59249;59.736;30.568;2022-10-16T10:30:40;12.92;77.33
71128;SHT30;59249;59.736;30.568;2022-10-16T10:33:22;12.85;77.06
71128;SHT30;59249;59.736;30.568;2022-10-16T10:36:02;12.84;77.13
71128;SHT30;59249;59.736;30.568;2022-10-16T10:38:48;12.60;77.15
71128;SHT30;59249;59.736;30.568;2022-10-16T10:42:08;12.55;77.61
71128;SHT30;59249;59.736;30.568;2022-10-16T10:45:01;12.49;77.60
71128;SHT30;59249;59.736;30.568;2022-10-16T10:47:48;12.31;78.04
71128;SHT30;59249;59.736;30.568;2022-10-16T10:50:28;12.34;78.08
71128;SHT30;59249;59.736;30.568;2022-10-16T10:53:11;12.30;78.14
71128;SHT30;59249;59.736;30.568;2022-10-16T10:55:52;12.13;78.68
71128;SHT30;59249;59.736;30.568;2022-10-16T11:01:44;12.06;79.17
71128;SHT30;59249;59.736;30.568;2022-10-16T11:05:03;11.95;79.33
71128;SHT30;59249;59.736;30.568;2022-10-16T11:07:43;11.90;79.42
71128;SHT30;59249;59.736;30.568;2022-10-16T11:10:17;11.76;79.98
71128;SHT30;59249;59.736;30.568;2022-10-16T11:12:50;11.76;80.22
71128;SHT30;59249;59.736;30.568;2022-10-16T11:15:29;11.76;80.41
71128;SHT30;59249;59.736;30.568;2022-10-16T11:18:06;11.78;80.49
71128;SHT30;59249;59.736;30.568;2022-10-16T11:20:42;11.72;80.62
71128;SHT30;59249;59.736;30.568;2022-10-16T11:23:20;11.77;80.58
71128;SHT30;59249;59.736;30.568;2022-10-16T11:25:51;11.75;80.80
71128;SHT30;59249;59.736;30.568;2022-10-16T11:28:31;11.64;81.08
71128;SHT30;59249;59.736;30.568;2022-10-16T11:31:08;11.66;81.18
71128;SHT30;59249;59.736;30.568;2022-10-16T11:33:43;11.64;81.52
71128;SHT30;59249;59.736;30.568;2022-10-16T11:36:19;11.63;81.82
71128;SHT30;59249;59.736;30.568;2022-10-16T11:38:58;11.62;82.13
71128;SHT30;59249;59.736;30.568;2022-10-16T11:41:35;11.61;82.00
71128;SHT30;59249;59.736;30.568;2022-10-16T11:44:20;11.62;82.07
71128;SHT30;59249;59.736;30.568;2022-10-16T11:47:10;11.47;82.61
71128;SHT30;59249;59.736;30.568;2022-10-16T11:50:09;11.46;82.62
71128;SHT30;59249;59.736;30.568;2022-10-16T11:52:46;11.47;82.73
71128;SHT30;59249;59.736;30.568;2022-10-16T11:55:20;11.49;82.82
71128;SHT30;59249;59.736;30.568;2022-10-16T11:57:53;11.35;83.02
71128;SHT30;59249;59.736;30.568;2022-10-16T12:00:28;11.36;83.12
71128;SHT30;59249;59.736;30.568;2022-10-16T12:03:08;11.40;83.31
71128;SHT30;59249;59.736;30.568;2022-10-16T12:06:04;11.47;83.21
71128;SHT30;59249;59.736;30.568;2022-10-16T12:08:38;11.37;83.45
71128;SHT30;59249;59.736;30.568;2022-10-16T12:11:23;11.49;83.44
71128;SHT30;59249;59.736;30.568;2022-10-16T12:14:06;11.31;83.59
71128;SHT30;59249;59.736;30.568;2022-10-16T12:16:38;11.36;83.75
71128;SHT30;59249;59.736;30.568;2022-10-16T12:19:15;11.28;83.90
71128;SHT30;59249;59.736;30.568;2022-10-16T12:21:45;11.33;83.92
71128;SHT30;59249;59.736;30.568;2022-10-16T12:24:36;11.22;84.09
71128;SHT30;59249;59.736;30.568;2022-10-16T12:27:21;11.30;84.08
71128;SHT30;59249;59.736;30.568;2022-10-16T12:29:56;11.31;84.25
71128;SHT30;59249;59.736;30.568;2022-10-16T12:32:32;11.34;84.35
71128;SHT30;59249;59.736;30.568;2022-10-16T12:35:21;11.35;84.07
71128;SHT30;59249;59.736;30.568;2022-10-16T12:37:52;11.50;84.09
71128;SHT30;59249;59.736;30.568;2022-10-16T12:40:29;11.57;83.93
71128;SHT30;59249;59.736;30.568;2022-10-16T12:43:11;11.56;83.91
71128;SHT30;59249;59.736;30.568;2022-10-16T12:45:40;11.51;84.06
71128;SHT30;59249;59.736;30.568;2022-10-16T12:48:21;11.47;84.26
71128;SHT30;59249;59.736;30.568;2022-10-16T12:51:25;11.47;84.32
71128;SHT30;59249;59.736;30.568;2022-10-16T12:54:01;11.43;84.42
71128;SHT30;59249;59.736;30.568;2022-10-16T12:56:50;11.35;84.61
71128;SHT30;59249;59.736;30.568;2022-10-16T12:59:34;11.36;84.77
71128;SHT30;59249;59.736;30.568;2022-10-16T13:02:32;11.38;84.72
71128;SHT30;59249;59.736;30.568;2022-10-16T13:05:33;11.38;84.76
71128;SHT30;59249;59.736;30.568;2022-10-16T13:08:29;11.43;84.94
71128;SHT30;59249;59.736;30.568;2022-10-16T13:11:09;11.33;84.91
71128;SHT30;59249;59.736;30.568;2022-10-16T13:14:03;11.38;84.94
71128;SHT30;59249;59.736;30.568;2022-10-16T13:16:51;11.43;85.13
71128;SHT30;59249;59.736;30.568;2022-10-16T13:19:35;11.35;85.10
71128;SHT30;59249;59.736;30.568;2022-10-16T13:22:19;11.31;85.17
71128;SHT30;59249;59.736;30.568;2022-10-16T13:25:08;11.37;85.32
71128;SHT30;59249;59.736;30.568;2022-10-16T13:27:50;11.34;85.30
71128;SHT30;59249;59.736;30.568;2022-10-16T13:30:25;11.27;85.59
71128;SHT30;59249;59.736;30.568;2022-10-16T13:33:01;11.22;85.74
71128;SHT30;59249;59.736;30.568;2022-10-16T13:35:34;11.15;85.80
71128;SHT30;59249;59.736;30.568;2022-10-16T13:38:12;11.18;85.85
71128;SHT30;59249;59.736;30.568;2022-10-16T13:40:54;11.13;85.95
71128;SHT30;59249;59.736;30.568;2022-10-16T13:43:28;11.21;85.79
71128;SHT30;59249;59.736;30.568;2022-10-16T13:46:01;11.17;85.89
71128;SHT30;59249;59.736;30.568;2022-10-16T13:48:32;11.18;85.96
71128;SHT30;59249;59.736;30.568;2022-10-16T13:51:06;11.06;86.12
71128;SHT30;59249;59.736;30.568;2022-10-16T13:53:36;11.14;86.05
71128;SHT30;59249;59.736;30.568;2022-10-16T13:56:13;11.15;86.06
71128;SHT30;59249;59.736;30.568;2022-10-16T13:58:43;11.14;86.09
71128;SHT30;59249;59.736;30.568;2022-10-16T14:01:19;11.18;86.24
71128;SHT30;59249;59.736;30.568;2022-10-16T14:04:05;11.03;86.35
71128;SHT30;59249;59.736;30.568;2022-10-16T14:06:43;11.12;86.43
71128;SHT30;59249;59.736;30.568;2022-10-16T14:09:24;11.08;86.58
71128;SHT30;59249;59.736;30.568;2022-10-16T14:12:11;11.15;86.62
71128;SHT30;59249;59.736;30.568;2022-10-16T14:14:46;11.06;86.72
71128;SHT30;59249;59.736;30.568;2022-10-16T14:17:20;11.18;86.64
71128;SHT30;59249;59.736;30.568;2022-10-16T14:19:59;11.15;86.80
71128;SHT30;59249;59.736;30.568;2022-10-16T14:22:36;11.25;86.69
71128;SHT30;59249;59.736;30.568;2022-10-16T14:25:24;11.32;86.52
71128;SHT30;59249;59.736;30.568;2022-10-16T14:28:03;11.23;86.75
71128;SHT30;59249;59.736;30.568;2022-10-16T14:30:35;11.26;86.83
71128;SHT30;59249;59.736;30.568;2022-10-16T14:33:21;11.10;87.04
71128;SHT30;59249;59.736;30.568;2022-10-16T14:36:04;11.19;87.15
71128;SHT30;59249;59.736;30.568;2022-10-16T14:38:34;10.99;87.55
71128;SHT30;59249;59.736;30.568;2022-10-16T14:41:04;11.09;87.61
71128;SHT30;59249;59.736;30.568;2022-10-16T14:43:37;11.17;87.38
71128;SHT30;59249;59.736;30.568;2022-10-16T14:46:13;11.18;87.55
71128;SHT30;59249;59.736;30.568;2022-10-16T14:48:52;11.04;87.94
71128;SHT30;59249;59.736;30.568;2022-10-16T14:51:23;11.18;87.84
71128;SHT30;59249;59.736;30.568;2022-10-16T14:53:53;11.11;88.12
71128;SHT30;59249;59.736;30.568;2022-10-16T14:56:43;11.03;88.56
71128;SHT30;59249;59.736;30.568;2022-10-16T14:59:29;10.93;88.69
71128;SHT30;59249;59.736;30.568;2022-10-16T15:02:00;10.99;88.83
71128;SHT30;59249;59.736;30.568;2022-10-16T15:04:32;11.01;88.79
71128;SHT30;59249;59.736;30.568;2022-10-16T15:07:01;11.06;88.82
71128;SHT30;59249;59.736;30.568;2022-10-16T15:09:31;11.03;88.72
71128;SHT30;59249;59.736;30.568;2022-10-16T15:12:00;10.98;88.93
71128;SHT30;59249;59.736;30.568;2022-10-16T15:14:36;11.16;88.75
71128;SHT30;59249;59.736;30.568;2022-10-16T15:17:09;11.13;88.62
71128;SHT30;59249;59.736;30.568;2022-10-16T15:19:39;11.11;88.54
71128;SHT30;59249;59.736;30.568;2022-10-16T15:22:11;11.20;88.66
71128;SHT30;59249;59.736;30.568;2022-10-16T15:24:41;11.20;88.71
71128;SHT30;59249;59.736;30.568;2022-10-16T15:27:10;11.18;88.73
71128;SHT30;59249;59.736;30.568;2022-10-16T15:29:42;11.19;88.65
71128;SHT30;59249;59.736;30.568;2022-10-16T15:32:13;11.22;88.68
71128;SHT30;59249;59.736;30.568;2022-10-16T15:34:43;11.26;88.88
71128;SHT30;59249;59.736;30.568;2022-10-16T15:37:12;11.27;88.58
71128;SHT30;59249;59.736;30.568;2022-10-16T15:39:42;11.28;88.74
71128;SHT30;59249;59.736;30.568;2022-10-16T15:42:16;11.24;88.85
71128;SHT30;59249;59.736;30.568;2022-10-16T15:45:01;11.35;88.96
71128;SHT30;59249;59.736;30.568;2022-10-16T15:48:09;11.37;88.75
71128;SHT30;59249;59.736;30.568;2022-10-16T15:50:44;11.42;88.78
71128;SHT30;59249;59.736;30.568;2022-10-16T15:53:13;11.42;88.87
71128;SHT30;59249;59.736;30.568;2022-10-16T15:55:47;11.42;88.74
71128;SHT30;59249;59.736;30.568;2022-10-16T15:58:22;11.48;88.75
71128;SHT30;59249;59.736;30.568;2022-10-16T16:00:58;11.57;88.73
71128;SHT30;59249;59.736;30.568;2022-10-16T16:03:30;11.59;88.70
71128;SHT30;59249;59.736;30.568;2022-10-16T16:06:04;11.58;88.74
71128;SHT30;59249;59.736;30.568;2022-10-16T16:08:37;11.59;88.72
71128;SHT30;59249;59.736;30.568;2022-10-16T16:11:09;11.57;88.98